Time;durP1;ratioP1;P1;durP2;ratioP2;P2;SDS_P1;SDS_P2;PMS_P1;PMS_P2;Temp;Humidity;BMP_temperature;BMP_pressure;BME280_temperature;BME280_humidity;BME280_pressure;Samples;Min_cycle;Max_cycle;Signal;HPM_P1;HPM_P2
2022/01/17 00:00:21;;;;;;;44.25;25.05;;;8.10;79.40;;;;;;4973649;28;20043;-45
2022/01/17 00:02:50;;;;;;;51.38;25.25;;;8.20;79.40;;;;;;4972059;28;20098;-43
2022/01/17 00:05:17;;;;;;;47.85;25.98;;;8.20;79.40;;;;;;4969909;28;20039;-46
2022/01/17 00:07:44;;;;;;;43.65;24.42;;;8.20;79.40;;;;;;4974464;28;20105;-44
2022/01/17 00:10:15;;;;;;;48.08;25.15;;;8.20;79.50;;;;;;4974737;28;20410;-47
2022/01/17 00:12:45;;;;;;;49.38;25.48;;;8.10;79.40;;;;;;4971780;28;20042;-46
2022/01/17 00:15:25;;;;;;;52.47;27.90;;;8.20;79.50;;;;;;4982903;28;20085;-44
2022/01/17 00:18:09;;;;;;;45.22;25.83;;;8.20;79.50;;;;;;4993646;28;20042;-43
2022/01/17 00:20:35;;;;;;;44.70;25.20;;;8.20;79.50;;;;;;4971880;28;20043;-46
2022/01/17 00:23:02;;;;;;;44.72;26.70;;;8.20;79.50;;;;;;4978642;28;20073;-47
2022/01/17 00:25:29;;;;;;;46.35;26.20;;;8.20;79.60;;;;;;4982992;28;20419;-46
2022/01/17 00:27:55;;;;;;;46.58;27.80;;;8.20;79.60;;;;;;4954425;28;20187;-46
2022/01/17 00:30:22;;;;;;;49.50;27.60;;;8.20;79.80;;;;;;4970799;28;20465;-46
2022/01/17 00:32:49;;;;;;;49.83;28.10;;;8.20;79.80;;;;;;4974406;28;20101;-47
2022/01/17 00:35:15;;;;;;;58.45;29.65;;;8.20;79.80;;;;;;4974383;28;20438;-48
2022/01/17 00:37:42;;;;;;;61.30;32.90;;;8.20;79.80;;;;;;4972410;28;20113;-47
2022/01/17 00:40:10;;;;;;;58.30;33.95;;;8.30;79.90;;;;;;4980692;28;20042;-46
2022/01/17 00:42:37;;;;;;;61.50;32.33;;;8.30;79.90;;;;;;4977522;28;20038;-46
2022/01/17 00:45:07;;;;;;;52.42;29.77;;;8.30;79.90;;;;;;4985462;28;20061;-46
2022/01/17 00:47:34;;;;;;;53.05;31.38;;;8.30;79.90;;;;;;4993628;28;20539;-45
2022/01/17 00:50:03;;;;;;;53.40;30.92;;;8.30;79.80;;;;;;4982007;28;20046;-49
2022/01/17 00:52:29;;;;;;;52.22;29.65;;;8.30;79.80;;;;;;4982167;28;20046;-43
2022/01/17 00:54:56;;;;;;;58.60;32.47;;;8.30;79.80;;;;;;4974399;28;20051;-47
2022/01/17 00:57:23;;;;;;;62.95;32.78;;;8.30;79.80;;;;;;4972642;28;20050;-47
2022/01/17 00:59:52;;;;;;;58.33;32.03;;;8.30;79.80;;;;;;4963359;28;20777;-47
2022/01/17 01:02:20;;;;;;;62.35;33.95;;;8.30;79.90;;;;;;4968208;28;20085;-45
2022/01/17 01:04:47;;;;;;;63.45;32.97;;;8.40;79.90;;;;;;4973965;28;20399;-45
2022/01/17 01:07:14;;;;;;;57.05;30.65;;;8.40;79.90;;;;;;4973483;28;20113;-47
2022/01/17 01:12:42;;;;;;;58.03;30.80;;;8.40;79.80;;;;;;4974179;28;20113;-45
2022/01/17 01:15:14;;;;;;;57.75;31.55;;;8.40;79.80;;;;;;4988143;28;20117;-48
2022/01/17 01:17:55;;;;;;;62.87;32.40;;;8.40;79.70;;;;;;4972728;28;20074;-47
2022/01/17 01:21:02;;;;;;;58.87;33.23;;;8.40;80.30;;;;;;4983405;28;20054;-45
2022/01/17 01:28:52;;;;;;;70.55;35.05;;;8.40;79.80;;;;;;4988705;28;20043;-47
2022/01/17 01:31:38;;;;;;;70.97;36.67;;;8.40;79.80;;;;;;4988628;28;20502;-46
2022/01/17 01:34:07;;;;;;;59.85;34.78;;;8.50;79.90;;;;;;4973948;28;20047;-45
2022/01/17 01:36:34;;;;;;;67.40;34.63;;;8.50;79.90;;;;;;4969561;28;20047;-44
2022/01/17 01:39:03;;;;;;;60.67;37.00;;;8.50;79.90;;;;;;4984956;28;20038;-44
2022/01/17 01:41:36;;;;;;;64.70;36.25;;;8.50;80.00;;;;;;4985182;28;20104;-44
2022/01/17 01:44:03;;;;;;;69.05;35.63;;;8.50;80.10;;;;;;4992756;28;20454;-43
2022/01/17 01:46:30;;;;;;;61.38;34.13;;;8.50;80.00;;;;;;4985650;28;20054;-46
2022/01/17 01:48:57;;;;;;;62.33;34.80;;;8.50;80.00;;;;;;4984896;28;20093;-49
2022/01/17 01:51:24;;;;;;;70.68;36.45;;;8.50;80.00;;;;;;4984195;28;20046;-44
2022/01/17 01:53:50;;;;;;;64.95;35.13;;;8.50;80.00;;;;;;4992557;28;20046;-44
2022/01/17 01:56:17;;;;;;;66.88;38.15;;;8.50;80.00;;;;;;4977535;28;20586;-44
2022/01/17 01:58:44;;;;;;;68.53;40.33;;;8.60;80.00;;;;;;4983294;28;20042;-46
2022/01/17 02:01:11;;;;;;;70.18;37.38;;;8.60;80.00;;;;;;4986960;28;20078;-47
2022/01/17 02:03:38;;;;;;;70.82;38.53;;;8.60;80.00;;;;;;4992526;28;20615;-46
2022/01/17 02:06:05;;;;;;;70.68;38.22;;;8.60;80.60;;;;;;4972861;28;20035;-46
2022/01/17 02:08:32;;;;;;;72.07;37.97;;;8.60;80.00;;;;;;4980393;28;20093;-45
2022/01/17 02:10:58;;;;;;;73.70;38.92;;;8.60;80.00;;;;;;4973026;28;20047;-49
2022/01/17 02:13:26;;;;;;;64.88;34.63;;;8.60;80.00;;;;;;4972835;28;20047;-47
2022/01/17 02:16:01;;;;;;;66.38;35.40;;;8.60;79.90;;;;;;4967835;28;20162;-47
2022/01/17 02:18:30;;;;;;;53.72;32.60;;;8.70;80.10;;;;;;4979894;28;20066;-46
2022/01/17 02:21:20;;;;;;;73.13;38.10;;;8.60;79.90;;;;;;4972942;28;20078;-47
2022/01/17 02:23:52;;;;;;;65.50;36.58;;;8.70;80.00;;;;;;4973818;28;20047;-47
2022/01/17 02:26:19;;;;;;;60.95;35.17;;;8.70;79.80;;;;;;4984042;28;20038;-46
2022/01/17 02:28:48;;;;;;;66.93;34.65;;;8.70;79.80;;;;;;4991533;28;20042;-44
2022/01/17 02:31:15;;;;;;;66.15;36.28;;;8.70;79.80;;;;;;4990212;28;20058;-47
2022/01/17 02:33:43;;;;;;;60.58;35.38;;;8.70;79.80;;;;;;4970031;28;20094;-46
2022/01/17 02:36:10;;;;;;;65.47;35.65;;;8.70;79.80;;;;;;4984797;28;20043;-45
2022/01/17 02:38:41;;;;;;;64.72;36.33;;;8.70;79.90;;;;;;4989006;28;20092;-47
2022/01/17 02:41:08;;;;;;;75.28;40.40;;;8.70;79.90;;;;;;4991969;28;20574;-46
2022/01/17 02:43:35;;;;;;;63.72;36.58;;;8.70;79.80;;;;;;4973034;28;20075;-47
2022/01/17 02:48:35;;;;;;;73.53;39.80;;;8.70;79.80;;;;;;4987917;28;20119;-49
2022/01/17 02:51:03;;;;;;;;;;;8.80;79.90;;;;;;4990543;28;20069;-45
2022/01/17 02:53:29;;;;;;;64.10;34.42;;;8.80;80.00;;;;;;4979244;28;19922;-46
2022/01/17 02:56:06;;;;;;;68.65;37.63;;;8.80;79.50;;;;;;4979489;28;20101;-44
2022/01/17 02:58:34;;;;;;;63.15;35.35;;;8.80;79.70;;;;;;4971686;28;20565;-46
2022/01/17 03:01:09;;;;;;;54.92;32.33;;;8.80;79.60;;;;;;4969556;28;20387;-47
2022/01/17 03:03:37;;;;;;;49.80;29.27;;;8.80;79.70;;;;;;4981345;28;20572;-44
2022/01/17 03:06:04;;;;;;;56.47;30.88;;;8.80;79.70;;;;;;4970991;28;20530;-45
2022/01/17 03:08:33;;;;;;;53.97;29.95;;;8.80;79.60;;;;;;4969205;28;20043;-48
2022/01/17 03:11:05;;;;;;;51.67;29.13;;;8.80;79.50;;;;;;4967797;28;20096;-47
2022/01/17 03:13:35;;;;;;;57.03;32.40;;;8.80;79.30;;;;;;4980968;28;20097;-45
2022/01/17 03:16:05;;;;;;;49.30;29.90;;;8.80;79.30;;;;;;4983672;28;20046;-49
2022/01/17 03:18:36;;;;;;;51.33;30.10;;;8.80;79.20;;;;;;4979003;28;20084;-47
2022/01/17 03:21:03;;;;;;;50.55;31.50;;;8.80;79.00;;;;;;4978492;28;20088;-44
2022/01/17 03:23:30;;;;;;;51.38;30.52;;;8.70;78.70;;;;;;4978172;28;20631;-48
2022/01/17 03:25:57;;;;;;;50.35;30.48;;;8.70;78.50;;;;;;4971562;28;20059;-45
2022/01/17 03:28:27;;;;;;;51.72;29.85;;;8.70;78.50;;;;;;4976422;28;20065;-47
2022/01/17 03:30:55;;;;;;;56.72;32.42;;;8.60;78.50;;;;;;4970120;28;20046;-48
2022/01/17 03:33:22;;;;;;;53.42;33.22;;;8.60;78.50;;;;;;4978250;28;20073;-48
2022/01/17 03:35:49;;;;;;;62.03;35.67;;;8.50;78.50;;;;;;4971815;28;20403;-48
2022/01/17 03:38:19;;;;;;;56.90;34.15;;;8.50;78.60;;;;;;4970964;28;20043;-47
2022/01/17 03:40:51;;;;;;;57.92;33.63;;;8.40;78.60;;;;;;4983190;28;20518;-48
2022/01/17 03:43:22;;;;;;;55.25;32.00;;;8.40;78.70;;;;;;4985672;28;20498;-48
2022/01/17 03:45:49;;;;;;;55.33;31.48;;;8.30;78.80;;;;;;4990771;28;20042;-47
2022/01/17 03:48:18;;;;;;;50.53;31.70;;;8.30;78.80;;;;;;4969920;28;20074;-47
2022/01/17 03:50:45;;;;;;;52.13;30.45;;;8.30;78.90;;;;;;4984547;28;20073;-48
2022/01/17 03:53:12;;;;;;;50.92;29.92;;;8.30;79.00;;;;;;4984858;28;20681;-46
2022/01/17 03:55:39;;;;;;;49.75;31.02;;;8.20;79.00;;;;;;4990467;28;20038;-47
2022/01/17 03:58:08;;;;;;;54.28;31.90;;;8.20;79.20;;;;;;4971574;28;20038;-45
2022/01/17 04:00:43;;;;;;;50.78;32.17;;;8.10;79.30;;;;;;4979778;28;20659;-48
2022/01/17 04:03:11;;;;;;;55.75;34.38;;;8.20;79.60;;;;;;4990860;28;20097;-46
2022/01/17 04:05:38;;;;;;;61.60;33.75;;;8.10;79.50;;;;;;4975146;28;20090;-44
2022/01/17 04:08:06;;;;;;;62.83;32.70;;;8.10;79.60;;;;;;4971735;28;20046;-48
2022/01/17 04:10:33;;;;;;;54.25;32.45;;;8.10;79.80;;;;;;4972081;28;20055;-44
2022/01/17 04:13:03;;;;;;;53.13;31.10;;;8.10;80.00;;;;;;4981832;28;20042;-47
2022/01/17 04:15:33;;;;;;;58.22;32.20;;;8.10;80.20;;;;;;4982388;28;20046;-48
2022/01/17 04:18:00;;;;;;;53.90;29.75;;;8.10;80.20;;;;;;4990056;28;20485;-48
2022/01/17 04:20:28;;;;;;;58.42;32.17;;;8.10;80.30;;;;;;5004685;23;20502;-46
2022/01/17 04:23:02;;;;;;;50.97;29.52;;;8.10;80.20;;;;;;4990280;28;20047;-50
2022/01/17 04:25:31;;;;;;;55.05;30.77;;;8.20;80.30;;;;;;4986881;28;20113;-50
2022/01/17 04:27:59;;;;;;;48.40;28.50;;;8.20;80.30;;;;;;4991430;28;20504;-48
2022/01/17 04:30:27;;;;;;;51.53;28.67;;;8.20;80.20;;;;;;4995244;28;20047;-46
2022/01/17 04:32:56;;;;;;;50.75;29.42;;;8.20;80.20;;;;;;5006302;28;20155;-46
2022/01/17 04:35:24;;;;;;;49.80;28.15;;;8.30;80.20;;;;;;4990421;28;20124;-46
2022/01/17 04:37:56;;;;;;;44.30;26.98;;;8.30;80.20;;;;;;4988073;28;20560;-49
2022/01/17 04:40:24;;;;;;;44.70;26.15;;;8.30;80.20;;;;;;4998617;28;20077;-48
2022/01/17 04:42:55;;;;;;;46.35;26.05;;;8.30;80.10;;;;;;5008869;28;20105;-47
2022/01/17 04:45:22;;;;;;;43.27;26.60;;;8.30;80.00;;;;;;4991477;28;20567;-49
2022/01/17 04:47:52;;;;;;;45.88;26.90;;;8.30;80.00;;;;;;4993555;28;20049;-47
2022/01/17 04:50:22;;;;;;;44.80;26.35;;;8.30;79.90;;;;;;4997703;28;20097;-49
2022/01/17 04:52:50;;;;;;;48.25;27.30;;;8.40;79.90;;;;;;4991798;28;20092;-49
2022/01/17 04:55:19;;;;;;;47.50;26.67;;;8.40;79.80;;;;;;4993306;28;20660;-51
2022/01/17 04:57:47;;;;;;;42.38;25.27;;;8.40;79.80;;;;;;5001357;28;20047;-49
2022/01/17 05:00:17;;;;;;;42.30;25.13;;;8.40;79.70;;;;;;4990751;28;20054;-47
2022/01/17 05:02:45;;;;;;;41.67;25.55;;;8.40;79.50;;;;;;5002191;28;20499;-51
2022/01/17 05:05:13;;;;;;;42.20;25.75;;;8.40;79.40;;;;;;5002970;28;20056;-49
2022/01/17 05:07:40;;;;;;;41.25;24.70;;;8.40;79.20;;;;;;5011420;28;20525;-50
2022/01/17 05:10:12;;;;;;;41.70;24.80;;;8.40;79.20;;;;;;4992896;28;20501;-47
2022/01/17 05:12:41;;;;;;;45.70;25.90;;;8.40;79.20;;;;;;4997043;28;20425;-47
2022/01/17 05:15:18;;;;;;;41.15;24.75;;;8.40;79.20;;;;;;5004580;28;20037;-50
2022/01/17 05:20:28;;;;;;;42.35;24.50;;;8.40;79.20;;;;;;5007429;28;20119;-51
2022/01/17 05:22:55;;;;;;;42.33;23.88;;;8.40;79.10;;;;;;4998228;28;20449;-50
2022/01/17 05:25:22;;;;;;;42.65;24.58;;;8.40;79.20;;;;;;5000199;28;20441;-50
2022/01/17 05:27:49;;;;;;;39.58;24.65;;;8.40;79.20;;;;;;4984194;28;20561;-51
2022/01/17 05:30:18;;;;;;;42.40;23.85;;;8.50;79.20;;;;;;4990672;28;20089;-47
2022/01/17 05:32:46;;;;;;;41.55;23.58;;;8.50;79.20;;;;;;4995645;28;20470;-48
2022/01/17 05:35:13;;;;;;;43.05;24.77;;;8.50;79.20;;;;;;5004587;28;20113;-47
2022/01/17 05:37:42;;;;;;;37.45;25.10;;;8.50;79.10;;;;;;5010263;28;20046;-49
2022/01/17 05:40:11;;;;;;;40.78;25.27;;;8.50;79.10;;;;;;5006091;28;20039;-47
2022/01/17 05:42:38;;;;;;;41.35;25.20;;;8.50;79.10;;;;;;4993970;28;20088;-47
2022/01/17 05:45:06;;;;;;;41.05;25.80;;;8.50;79.10;;;;;;4991207;28;20041;-48
2022/01/17 05:47:33;;;;;;;38.03;23.17;;;8.50;79.10;;;;;;4981613;28;20097;-47
2022/01/17 05:50:02;;;;;;;41.75;24.45;;;8.50;79.10;;;;;;4989945;28;20397;-51
2022/01/17 05:52:31;;;;;;;38.70;23.08;;;8.50;79.10;;;;;;4988842;28;20519;-47
2022/01/17 05:54:59;;;;;;;43.75;24.92;;;8.50;79.00;;;;;;4982118;28;20051;-47
2022/01/17 05:57:26;;;;;;;39.33;23.63;;;8.50;79.00;;;;;;4984589;28;20046;-51
2022/01/17 05:59:53;;;;;;;40.88;23.77;;;8.60;78.90;;;;;;4991405;28;20046;-47
2022/01/17 06:02:20;;;;;;;40.97;24.25;;;8.50;78.80;;;;;;4984537;28;20530;-51
2022/01/17 06:04:47;;;;;;;40.85;23.55;;;8.60;78.80;;;;;;4984751;28;20050;-48
2022/01/17 06:07:14;;;;;;;36.20;22.83;;;8.60;78.80;;;;;;4989186;28;20517;-50
2022/01/17 06:09:41;;;;;;;40.42;24.70;;;8.60;78.80;;;;;;4987484;28;20128;-52
2022/01/17 06:12:09;;;;;;;41.50;23.65;;;8.60;78.70;;;;;;4993668;28;20069;-51
2022/01/17 06:14:36;;;;;;;36.05;22.48;;;8.60;78.70;;;;;;4983727;28;20070;-48
2022/01/17 06:17:03;;;;;;;41.97;25.08;;;8.60;78.70;;;;;;4983993;28;20568;-48
2022/01/17 06:19:30;;;;;;;42.70;23.67;;;8.60;78.60;;;;;;4994601;28;20080;-49
2022/01/17 06:21:57;;;;;;;46.38;25.80;;;8.60;78.70;;;;;;4991072;28;20080;-52
2022/01/17 06:24:24;;;;;;;42.05;25.42;;;8.60;78.60;;;;;;4984269;28;20097;-49
2022/01/17 06:26:51;;;;;;;42.83;25.52;;;8.60;78.60;;;;;;4985856;28;20043;-55
2022/01/17 06:29:18;;;;;;;40.50;22.73;;;8.60;78.60;;;;;;4985645;28;20557;-54
2022/01/17 06:31:45;;;;;;;40.90;23.40;;;8.60;78.60;;;;;;4984544;28;20495;-54
2022/01/17 06:34:13;;;;;;;42.47;24.30;;;8.60;78.60;;;;;;4986038;28;20046;-54
2022/01/17 06:36:42;;;;;;;42.75;24.35;;;8.60;78.60;;;;;;4988541;28;20124;-54
2022/01/17 06:39:10;;;;;;;42.17;24.85;;;8.60;78.60;;;;;;5001192;28;20568;-52
2022/01/17 06:41:40;;;;;;;42.85;24.05;;;8.50;78.60;;;;;;4997666;28;20096;-55
2022/01/17 06:44:07;;;;;;;43.38;24.10;;;8.60;78.70;;;;;;5009154;28;20060;-51
2022/01/17 06:46:36;;;;;;;43.97;25.25;;;8.60;78.70;;;;;;4978258;28;20093;-53
2022/01/17 06:49:03;;;;;;;43.85;24.77;;;8.60;78.70;;;;;;5002121;28;20042;-55
2022/01/17 06:51:30;;;;;;;40.78;24.05;;;8.60;78.70;;;;;;4991830;28;20085;-52
2022/01/17 06:53:57;;;;;;;42.58;23.95;;;8.60;78.70;;;;;;4989295;28;20097;-53
2022/01/17 06:56:23;;;;;;;43.70;25.17;;;8.60;78.70;;;;;;4983670;28;20054;-55
2022/01/17 06:58:50;;;;;;;44.75;24.90;;;8.60;78.70;;;;;;4984032;28;20042;-54
2022/01/17 07:01:19;;;;;;;42.40;25.98;;;8.60;78.70;;;;;;4979587;28;20039;-52
2022/01/17 07:03:46;;;;;;;42.30;24.58;;;8.60;78.70;;;;;;4977921;28;20042;-51
2022/01/17 07:06:13;;;;;;;43.88;25.65;;;8.60;78.70;;;;;;4986855;28;20050;-54
2022/01/17 07:08:40;;;;;;;45.50;26.30;;;8.60;78.60;;;;;;4982884;28;20097;-54
2022/01/17 07:11:07;;;;;;;42.30;25.42;;;8.60;78.60;;;;;;4987167;28;20074;-51
2022/01/17 07:13:34;;;;;;;46.17;26.15;;;8.60;78.60;;;;;;4985018;28;20422;-53
2022/01/17 07:16:01;;;;;;;44.70;24.80;;;8.60;78.60;;;;;;4983687;28;20088;-51
2022/01/17 07:18:28;;;;;;;43.40;23.63;;;8.60;78.60;;;;;;4980282;28;20042;-57
2022/01/17 07:20:54;;;;;;;41.72;24.10;;;8.60;78.60;;;;;;4983331;28;20043;-54
2022/01/17 07:23:21;;;;;;;45.10;25.35;;;8.60;78.60;;;;;;4985299;28;20473;-57
2022/01/17 07:25:48;;;;;;;44.42;25.35;;;8.60;78.60;;;;;;4988622;28;20498;-57
2022/01/17 07:28:15;;;;;;;42.95;24.38;;;8.60;78.60;;;;;;4981887;28;20757;-57
2022/01/17 07:30:42;;;;;;;42.47;24.83;;;8.60;78.60;;;;;;4978517;28;20501;-53
2022/01/17 07:33:09;;;;;;;41.47;23.85;;;8.50;78.60;;;;;;4987464;28;20403;-56
2022/01/17 07:35:36;;;;;;;42.42;25.48;;;8.60;78.50;;;;;;4988236;28;20077;-55
2022/01/17 07:38:05;;;;;;;46.65;25.08;;;8.50;78.50;;;;;;4982475;28;20050;-56
2022/01/17 07:40:33;;;;;;;41.10;24.77;;;8.60;78.60;;;;;;4979440;28;20117;-54
2022/01/17 07:43:00;;;;;;;44.72;26.02;;;8.50;78.50;;;;;;4988424;28;20034;-56
2022/01/17 07:45:30;;;;;;;39.65;24.70;;;8.60;78.50;;;;;;5002310;28;20042;-56
2022/01/17 07:50:33;;;;;;;42.38;24.25;;;8.60;78.50;;;;;;4990943;28;20644;-57
2022/01/17 07:53:00;;;;;;;47.08;25.88;;;8.60;78.60;;;;;;4998620;28;20042;-57
2022/01/17 07:55:28;;;;;;;42.47;26.20;;;8.60;78.60;;;;;;4995818;28;20109;-57
2022/01/17 07:57:55;;;;;;;42.78;25.48;;;8.60;78.60;;;;;;4982462;28;20039;-57
2022/01/17 08:00:25;;;;;;;46.38;26.10;;;8.60;78.70;;;;;;4977519;28;20710;-56
2022/01/17 08:02:56;;;;;;;44.70;27.77;;;8.60;78.70;;;;;;4986838;28;20148;-57
2022/01/17 08:05:24;;;;;;;44.42;28.08;;;8.60;78.80;;;;;;5000542;28;20502;-56
2022/01/17 08:07:51;;;;;;;49.17;28.00;;;8.60;78.80;;;;;;4990442;28;20085;-56
2022/01/17 08:10:17;;;;;;;49.92;28.80;;;8.60;78.90;;;;;;4986432;28;20097;-56
2022/01/17 08:12:46;;;;;;;51.47;27.33;;;8.70;79.00;;;;;;4995364;28;20043;-57
2022/01/17 08:15:16;;;;;;;43.33;28.45;;;8.70;79.10;;;;;;4999350;28;20230;-56
2022/01/17 08:17:45;;;;;;;43.08;27.65;;;8.70;79.00;;;;;;5009701;28;20045;-54
2022/01/17 08:20:14;;;;;;;49.67;28.80;;;8.70;79.10;;;;;;5000453;28;20049;-57
2022/01/17 08:22:41;;;;;;;48.58;28.63;;;8.70;79.10;;;;;;4998648;28;20053;-57
2022/01/17 08:25:08;;;;;;;44.30;27.65;;;8.70;79.10;;;;;;5006524;28;20038;-55
2022/01/17 08:27:35;;;;;;;47.20;28.98;;;8.70;79.20;;;;;;4987562;28;20538;-57
2022/01/17 08:30:04;;;;;;;45.75;27.52;;;8.70;79.20;;;;;;4982537;28;20046;-57
2022/01/17 08:32:51;;;;;;;46.88;27.33;;;8.70;79.20;;;;;;5001757;28;20038;-57
2022/01/17 08:35:20;;;;;;;50.58;27.38;;;8.70;79.20;;;;;;5007576;28;20120;-56
2022/01/17 08:37:47;;;;;;;43.95;26.50;;;8.70;79.20;;;;;;4994818;28;20473;-56
2022/01/17 08:40:15;;;;;;;53.35;29.45;;;8.80;79.30;;;;;;5002826;28;20046;-56
2022/01/17 08:42:42;;;;;;;44.47;27.52;;;8.80;79.30;;;;;;5010772;28;20046;-57
2022/01/17 08:45:11;;;;;;;42.83;26.27;;;8.80;79.40;;;;;;5002128;28;20489;-57
2022/01/17 08:47:58;;;;;;;48.00;28.50;;;8.90;79.50;;;;;;4991458;28;20065;-56
2022/01/17 08:50:26;;;;;;;50.38;28.50;;;8.90;79.50;;;;;;4999948;28;20127;-56
2022/01/17 08:52:53;;;;;;;44.42;28.60;;;8.90;79.50;;;;;;4993124;28;20108;-56
2022/01/17 08:55:22;;;;;;;50.53;29.90;;;8.90;79.60;;;;;;4991486;28;20101;-56
2022/01/17 08:57:49;;;;;;;50.90;29.95;;;9.00;79.70;;;;;;5000195;28;20053;-57
2022/01/17 09:00:18;;;;;;;51.63;29.08;;;9.00;79.70;;;;;;4994970;28;20035;-57
2022/01/17 09:03:05;;;;;;;47.40;28.63;;;9.10;79.70;;;;;;4983510;28;20113;-57
2022/01/17 09:05:34;;;;;;;44.42;27.38;;;9.10;79.60;;;;;;4989932;28;20125;-57
2022/01/17 09:08:02;;;;;;;44.75;28.35;;;9.20;79.60;;;;;;4993029;28;20096;-57
2022/01/17 09:10:29;;;;;;;46.00;28.17;;;9.20;79.60;;;;;;4989036;28;20039;-57
2022/01/17 09:12:57;;;;;;;54.13;28.67;;;9.20;79.60;;;;;;4984530;28;20101;-55
2022/01/17 09:15:24;;;;;;;45.15;27.88;;;9.30;79.70;;;;;;4980903;28;20058;-53
2022/01/17 09:17:51;;;;;;;44.03;27.15;;;9.30;79.60;;;;;;4992903;28;20042;-56
2022/01/17 09:20:18;;;;;;;49.20;28.38;;;9.40;79.30;;;;;;4989753;28;20391;-57
2022/01/17 09:22:45;;;;;;;44.42;27.70;;;9.40;79.10;;;;;;4984616;28;20043;-56
2022/01/17 09:25:12;;;;;;;41.63;27.83;;;9.50;79.00;;;;;;4991331;28;20039;-56
2022/01/17 09:27:42;;;;;;;45.50;26.48;;;9.50;79.00;;;;;;4995671;28;20517;-57
2022/01/17 09:30:14;;;;;;;46.80;27.30;;;9.50;78.80;;;;;;5003107;28;20100;-54
2022/01/17 09:32:41;;;;;;;49.15;28.30;;;9.60;78.70;;;;;;5006858;28;20105;-57
2022/01/17 09:35:11;;;;;;;41.10;26.23;;;9.60;79.20;;;;;;5001204;28;20104;-56
2022/01/17 09:37:40;;;;;;;43.03;28.13;;;9.60;78.40;;;;;;4993015;28;20498;-57
2022/01/17 09:40:08;;;;;;;43.13;26.92;;;9.60;78.30;;;;;;5005581;28;20189;-57
2022/01/17 09:42:37;;;;;;;42.75;27.38;;;9.60;78.20;;;;;;4987417;28;20079;-56
2022/01/17 09:45:10;;;;;;;41.47;26.70;;;9.70;78.20;;;;;;4990777;28;20042;-56
2022/01/17 09:47:39;;;;;;;44.05;26.15;;;9.70;78.00;;;;;;5002828;28;20120;-57
2022/01/17 09:50:09;;;;;;;42.25;25.15;;;9.60;77.90;;;;;;4998607;28;20379;-56
2022/01/17 09:52:44;;;;;;;36.55;23.98;;;9.70;78.00;;;;;;4983201;28;20093;-57
2022/01/17 09:55:14;;;;;;;37.10;24.00;;;9.70;77.90;;;;;;4986529;28;20526;-56
2022/01/17 09:57:50;;;;;;;37.15;23.60;;;9.70;77.90;;;;;;4989668;28;20046;-57
2022/01/17 10:00:20;;;;;;;37.58;23.48;;;9.70;77.70;;;;;;4996601;28;20694;-56
2022/01/17 10:02:49;;;;;;;26.05;17.25;;;9.70;77.80;;;;;;4998251;28;20066;-56
2022/01/17 10:05:17;;;;;;;39.20;23.17;;;9.80;77.80;;;;;;4995351;28;20050;-57
2022/01/17 10:08:04;;;;;;;32.90;22.45;;;9.80;77.70;;;;;;5007443;28;20457;-57
2022/01/17 10:10:37;;;;;;;33.80;21.15;;;9.80;77.80;;;;;;4989925;28;20046;-57
2022/01/17 10:13:23;;;;;;;32.10;21.13;;;9.90;78.00;;;;;;4989638;28;20045;-55
2022/01/17 10:16:08;;;;;;;34.60;20.70;;;9.90;78.40;;;;;;4996622;28;20056;-55
2022/01/17 10:18:41;;;;;;;35.35;21.02;;;10.00;77.60;;;;;;4991371;28;20462;-55
2022/01/17 10:21:15;;;;;;;34.08;22.45;;;10.00;77.40;;;;;;4986227;28;20038;-57
2022/01/17 10:35:15;;;;;;;31.38;19.15;;;10.20;77.00;;;;;;4999480;23;20409;-78
2022/01/17 10:37:56;;;;;;;30.83;18.70;;;10.20;76.70;;;;;;4987434;28;20039;-77
2022/01/17 10:40:24;;;;;;;24.20;16.83;;;10.30;77.40;;;;;;4988066;28;20051;-77
2022/01/17 10:42:55;;;;;;;27.75;18.00;;;10.20;76.80;;;;;;5000771;28;20494;-77
2022/01/17 10:45:25;;;;;;;26.88;17.67;;;10.30;76.70;;;;;;4995990;28;20042;-77
2022/01/17 10:47:55;;;;;;;29.27;17.55;;;10.30;76.70;;;;;;4988897;28;20042;-76
2022/01/17 10:50:26;;;;;;;29.00;17.75;;;10.30;76.70;;;;;;4988037;28;20051;-77
2022/01/17 10:52:59;;;;;;;24.55;16.67;;;10.30;76.50;;;;;;4968735;28;20909;-77
2022/01/17 10:55:49;;;;;;;26.60;16.65;;;10.30;76.40;;;;;;4982380;28;20144;-77
2022/01/17 10:58:31;;;;;;;24.38;16.30;;;10.30;76.40;;;;;;4998753;28;20362;-77
2022/01/17 11:01:00;;;;;;;30.90;17.63;;;10.20;76.30;;;;;;4998860;28;20050;-77
2022/01/17 11:03:31;;;;;;;26.70;17.52;;;10.30;76.50;;;;;;4971787;28;20050;-77
2022/01/17 11:06:03;;;;;;;27.98;18.02;;;10.30;76.50;;;;;;4982442;28;20112;-77
2022/01/17 11:08:34;;;;;;;26.08;16.02;;;10.20;76.50;;;;;;5000613;28;20400;-77
2022/01/17 11:11:08;;;;;;;29.00;16.92;;;10.30;76.70;;;;;;4984606;28;20051;-77
2022/01/17 11:13:38;;;;;;;23.48;16.90;;;10.30;76.80;;;;;;4975352;28;20093;-77
2022/01/17 11:16:08;;;;;;;30.83;18.00;;;10.30;76.90;;;;;;4980953;28;20478;-76
2022/01/17 11:18:36;;;;;;;26.15;17.25;;;10.40;76.80;;;;;;4983179;28;20056;-76
2022/01/17 11:21:16;;;;;;;25.50;17.70;;;10.30;76.70;;;;;;4991975;28;20072;-77
2022/01/17 11:23:47;;;;;;;27.50;17.38;;;10.40;76.40;;;;;;4983994;28;20445;-77
2022/01/17 11:26:15;;;;;;;23.97;16.60;;;10.30;76.40;;;;;;4987040;28;20057;-77
2022/01/17 11:28:42;;;;;;;23.52;16.30;;;10.30;76.40;;;;;;4991484;28;20517;-77
2022/01/17 11:31:14;;;;;;;24.17;15.40;;;10.40;76.30;;;;;;4989361;28;20161;-76
2022/01/17 11:33:46;;;;;;;25.60;15.45;;;10.40;76.20;;;;;;4985871;28;20048;-77
2022/01/17 11:36:17;;;;;;;22.58;14.90;;;10.40;76.20;;;;;;4965706;28;20050;-77
2022/01/17 11:38:52;;;;;;;21.15;15.18;;;10.30;76.20;;;;;;4971520;28;20062;-76
2022/01/17 11:41:28;;;;;;;25.58;15.38;;;10.30;76.00;;;;;;4969621;28;20050;-77
2022/01/17 11:44:00;;;;;;;23.27;14.85;;;10.30;75.90;;;;;;4968704;28;20057;-77
2022/01/17 11:46:29;;;;;;;;;;;10.40;76.00;;;;;;4980173;28;20133;-77
2022/01/17 11:49:06;;;;;;;22.48;13.48;;;10.30;76.10;;;;;;5001666;28;20023;-77
2022/01/17 11:51:48;;;;;;;20.95;15.10;;;10.30;75.90;;;;;;4981408;28;20043;-77
2022/01/17 11:54:19;;;;;;;24.85;14.82;;;10.30;75.90;;;;;;5002045;28;20046;-77
2022/01/17 11:56:51;;;;;;;23.65;14.77;;;10.30;75.90;;;;;;4969238;28;20422;-77
2022/01/17 11:59:35;;;;;;;22.20;13.38;;;10.30;76.10;;;;;;5006337;28;20035;-77
2022/01/17 12:02:21;;;;;;;22.40;13.27;;;10.30;75.70;;;;;;5011357;28;20042;-77
2022/01/17 12:05:06;;;;;;;21.30;13.02;;;10.30;75.90;;;;;;4991607;28;20502;-77
2022/01/17 12:07:37;;;;;;;21.77;13.70;;;10.30;75.70;;;;;;4979777;28;20051;-77
2022/01/17 12:10:10;;;;;;;18.85;13.75;;;10.30;75.90;;;;;;4965551;28;20050;-77
2022/01/17 12:12:37;;;;;;;20.85;12.98;;;10.30;75.90;;;;;;4988128;28;20092;-77
2022/01/17 12:15:11;;;;;;;21.73;12.73;;;10.30;76.10;;;;;;4985086;28;20069;-77
2022/01/17 12:17:38;;;;;;;18.58;12.23;;;10.30;76.00;;;;;;4975917;28;20529;-77
2022/01/17 12:20:09;;;;;;;17.83;12.75;;;10.30;76.00;;;;;;4992339;28;20445;-77
2022/01/17 12:22:40;;;;;;;21.17;12.93;;;10.30;75.90;;;;;;5009233;28;20041;-77
2022/01/17 12:25:26;;;;;;;18.63;11.45;;;10.30;75.70;;;;;;4972893;28;20301;-77
2022/01/17 12:28:05;;;;;;;20.75;12.20;;;10.40;75.60;;;;;;5003022;28;20034;-77
2022/01/17 12:30:46;;;;;;;19.35;12.95;;;10.40;75.60;;;;;;5000273;28;20137;-77
2022/01/17 12:33:28;;;;;;;18.65;11.52;;;10.40;75.50;;;;;;4984590;28;20046;-76
2022/01/17 12:35:56;;;;;;;;;;;10.30;75.40;;;;;;4990685;28;20097;-76
2022/01/17 12:38:43;;;;;;;21.58;11.32;;;10.40;75.70;;;;;;4989883;28;20378;-77
2022/01/17 12:41:33;;;;;;;21.27;12.15;;;10.40;75.50;;;;;;4990083;28;20553;-76
2022/01/17 12:44:22;;;;;;;16.77;10.65;;;10.40;75.40;;;;;;4968205;28;20038;-76
2022/01/17 12:46:52;;;;;;;20.10;10.90;;;10.50;75.60;;;;;;4989923;28;20034;-76
2022/01/17 12:49:20;;;;;;;15.25;9.15;;;10.50;75.70;;;;;;4989228;28;20533;-76
2022/01/17 12:51:50;;;;;;;19.13;10.23;;;10.50;76.20;;;;;;4972956;28;20513;-76
2022/01/17 12:54:20;;;;;;;21.02;11.35;;;10.60;75.50;;;;;;4989877;28;20432;-76
2022/01/17 12:56:50;;;;;;;19.45;9.80;;;10.50;75.40;;;;;;4981787;28;20472;-76
2022/01/17 12:59:18;;;;;;;16.35;9.48;;;10.50;75.20;;;;;;4996096;28;20046;-76
2022/01/17 13:01:51;;;;;;;22.52;9.98;;;10.50;75.20;;;;;;4988650;28;20045;-76
2022/01/17 13:04:19;;;;;;;18.70;9.20;;;10.50;75.10;;;;;;4994034;28;20043;-77
2022/01/17 13:06:48;;;;;;;19.30;9.38;;;10.50;75.20;;;;;;4990348;28;20520;-76
2022/01/17 13:09:20;;;;;;;19.00;9.57;;;10.50;75.30;;;;;;4989067;28;20046;-76
2022/01/17 13:11:49;;;;;;;18.23;8.75;;;10.50;75.40;;;;;;4984264;28;20054;-76
2022/01/17 13:14:18;;;;;;;18.30;8.82;;;10.40;76.10;;;;;;4983183;28;20065;-76
2022/01/17 13:16:47;;;;;;;19.17;8.95;;;10.50;75.70;;;;;;5005782;28;20045;-76